Funk, Steffen (2026): Master tracks in different resolutions of ALKOR cruise AL645, Kiel - Kiel, 2026-01-27 - 2026-02-01 [dataset]. Institute of Marine Ecosystem and Fishery Science, University of Hamburg, PANGAEA, https://doi.pangaea.de/10.1594/PANGAEA.993756 (DOI registration in progress)
Always quote citation above when using data! You can download the citation in several formats below.
Published: 2026-04-22
Abstract:
Raw data acquired by position sensors on board RV Alkor during expedition AL645 were processed to receive a validated master track which can be used as reference of further expedition data. During AL645 data from the Seapath 330 system, the Furuno GP-170 receiver and the SAAB R6 system were used to calculate the mastertrack. Data were downloaded from DAVIS SHIP data base (https://dship.o2a-data.de) with a resolution of 1 sec. Processing and evaluation of the data is outlined in the data processing report. Processed data are provided as a master track with 1 sec resolution derived from the position sensors' data selected by priority and a generalized track with a reduced set of the most significant positions of the master track.
Other version:
Funk, Steffen (2026): Master track of ALKOR cruise AL645 in 1 sec resolution (zipped, 20 MB) [dataset]. Institute of Marine Ecosystem and Fishery Science, University of Hamburg, PANGAEA, https://doi.pangaea.de/10.1594/PANGAEA.993757
Data processing report:
Further details:
Project(s):
DAM Underway Research Data (DAM_Underway)
Coverage:
Median Latitude: 54.393613 * Median Longitude: 10.803353 * South-bound Latitude: 54.126444 * West-bound Longitude: 10.020694 * North-bound Latitude: 55.018802 * East-bound Longitude: 11.839036
Date/Time Start: 2026-01-27T05:16:55 * Date/Time End: 2026-02-01T17:26:54
Event(s):
AL645-track * Latitude Start: 54.328521 * Longitude Start: 10.179478 * Latitude End: 54.328523 * Longitude End: 10.179436 * Date/Time Start: 2026-01-27T04:56:55 * Date/Time End: 2026-02-01T17:26:54 * Campaign: AL645 (Wintercod) * Basis: Alkor (1990) * Method/Device: Underway cruise track measurements (CT) * Comment: Kiel - Kiel
Comment:
This dataset contains the master track in 10 min resolution, for other resolutions please see "Other version" references.
Parameter(s):
License:
Creative Commons Attribution 4.0 International (CC-BY-4.0)
Status:
Curation Level: Enhanced curation (CurationLevelC)
Size:
1586 data points
Data
| 1 Date/Time | 2 Latitude | 3 Longitude | 4 Speed [kn] | 5 Course [deg] |
|---|---|---|---|---|
| 2026-01-27T05:16 | 54.32852 | 10.17946 | 0.001 | 60.3 |
| 2026-01-27T05:26 | 54.32852 | 10.17945 | 0.003 | 315.8 |
| 2026-01-27T05:36 | 54.32852 | 10.17945 | 0.001 | 138.8 |
| 2026-01-27T05:46 | 54.32852 | 10.17945 | 0.001 | 240.3 |
| 2026-01-27T05:56 | 54.32852 | 10.17945 | 0.001 | 343.7 |
| 2026-01-27T06:06 | 54.32852 | 10.17946 | 0.002 | 90.0 |
| 2026-01-27T06:16 | 54.32853 | 10.17945 | 0.002 | 325.0 |
| 2026-01-27T06:26 | 54.32852 | 10.17945 | 0.003 | 180.0 |
| 2026-01-27T06:36 | 54.32852 | 10.17944 | 0.002 | 290.8 |
| 2026-01-27T06:46 | 54.32852 | 10.17944 | 0.001 | 210.3 |
| 2026-01-27T06:56 | 54.32852 | 10.17945 | 0.003 | 51.7 |
| 2026-01-27T07:06 | 54.32852 | 10.17946 | 0.002 | 98.8 |
| 2026-01-27T07:16 | 54.32853 | 10.17945 | 0.004 | 312.6 |
| 2026-01-27T07:26 | 54.32855 | 10.17937 | 0.019 | 291.9 |
| 2026-01-27T07:36 | 54.33153 | 10.16954 | 2.332 | 297.4 |
| 2026-01-27T07:46 | 54.34433 | 10.16659 | 4.655 | 352.4 |
| 2026-01-27T07:56 | 54.36184 | 10.17372 | 6.487 | 13.4 |
| 2026-01-27T08:06 | 54.38665 | 10.19757 | 10.254 | 29.3 |
| 2026-01-27T08:16 | 54.41202 | 10.21064 | 9.548 | 16.7 |
| 2026-01-27T08:26 | 54.43605 | 10.23264 | 9.817 | 28.1 |
| 2026-01-27T08:36 | 54.46292 | 10.24368 | 9.962 | 13.5 |
| 2026-01-27T08:46 | 54.48768 | 10.22210 | 10.007 | 333.1 |
| 2026-01-27T08:56 | 54.49945 | 10.17387 | 10.972 | 292.8 |
| 2026-01-27T09:06 | 54.50128 | 10.12045 | 11.225 | 273.4 |
| 2026-01-27T09:16 | 54.50315 | 10.06667 | 11.302 | 273.4 |
| 2026-01-27T09:26 | 54.50994 | 10.02069 | 9.950 | 284.3 |
| 2026-01-27T09:36 | 54.51613 | 10.02348 | 2.306 | 14.7 |
| 2026-01-27T09:46 | 54.51669 | 10.02454 | 0.300 | 47.7 |
| 2026-01-27T09:56 | 54.51585 | 10.03243 | 1.681 | 100.3 |
| 2026-01-27T10:06 | 54.51674 | 10.03507 | 0.639 | 60.1 |
| 2026-01-27T10:16 | 54.52086 | 10.04489 | 2.539 | 54.2 |
| 2026-01-27T10:26 | 54.52563 | 10.05655 | 2.988 | 54.9 |
| 2026-01-27T10:36 | 54.53064 | 10.06806 | 3.015 | 53.2 |
| 2026-01-27T10:46 | 54.53381 | 10.07982 | 2.718 | 65.1 |
| 2026-01-27T10:56 | 54.53594 | 10.08707 | 1.702 | 63.2 |
| 2026-01-27T11:06 | 54.53810 | 10.09344 | 1.545 | 59.8 |
| 2026-01-27T11:16 | 54.53833 | 10.09421 | 0.180 | 62.6 |
| 2026-01-27T11:26 | 54.53767 | 10.09360 | 0.269 | 208.1 |
| 2026-01-27T11:36 | 54.53779 | 10.09353 | 0.044 | 339.7 |
| 2026-01-27T11:46 | 54.53810 | 10.09356 | 0.114 | 3.0 |
| 2026-01-27T11:56 | 54.53901 | 10.09300 | 0.348 | 340.7 |
| 2026-01-27T12:06 | 54.53955 | 10.09329 | 0.203 | 17.3 |
| 2026-01-27T12:16 | 54.53973 | 10.09366 | 0.101 | 49.5 |
| 2026-01-27T12:26 | 54.53997 | 10.09222 | 0.312 | 285.7 |
| 2026-01-27T12:36 | 54.54036 | 10.09230 | 0.142 | 6.8 |
| 2026-01-27T12:46 | 54.54051 | 10.09164 | 0.149 | 291.8 |
| 2026-01-27T12:56 | 54.53987 | 10.09003 | 0.409 | 235.8 |
| 2026-01-27T13:06 | 54.53980 | 10.09008 | 0.029 | 160.5 |
| 2026-01-27T13:16 | 54.54004 | 10.08910 | 0.222 | 292.9 |
| 2026-01-27T13:26 | 54.54067 | 10.08992 | 0.285 | 37.1 |
| 2026-01-27T13:36 | 54.54043 | 10.09076 | 0.197 | 116.2 |
| 2026-01-27T13:46 | 54.54019 | 10.09155 | 0.185 | 116.9 |
| 2026-01-27T13:56 | 54.54387 | 10.10810 | 3.713 | 69.1 |
| 2026-01-27T14:06 | 54.55043 | 10.12371 | 4.034 | 54.1 |
| 2026-01-27T14:16 | 54.55264 | 10.12878 | 1.327 | 53.2 |
| 2026-01-27T14:26 | 54.55659 | 10.15390 | 5.451 | 74.8 |
| 2026-01-27T14:36 | 54.56595 | 10.19984 | 10.198 | 70.7 |
| 2026-01-27T14:46 | 54.57572 | 10.24560 | 10.210 | 69.8 |
| 2026-01-27T14:56 | 54.58546 | 10.29165 | 10.258 | 70.0 |
| 2026-01-27T15:06 | 54.59288 | 10.32694 | 7.859 | 70.1 |
| 2026-01-27T15:16 | 54.59496 | 10.33331 | 1.528 | 60.7 |
| 2026-01-27T15:26 | 54.58215 | 10.32643 | 4.836 | 197.3 |
| 2026-01-27T15:36 | 54.55395 | 10.31363 | 10.512 | 194.8 |
| 2026-01-27T15:46 | 54.52555 | 10.31163 | 10.246 | 182.3 |
| 2026-01-27T15:56 | 54.49723 | 10.32049 | 10.374 | 169.7 |
| 2026-01-27T16:06 | 54.48192 | 10.33111 | 5.953 | 158.0 |
| 2026-01-27T16:16 | 54.48128 | 10.33792 | 1.448 | 99.1 |
| 2026-01-27T16:26 | 54.47560 | 10.36800 | 6.638 | 107.9 |
| 2026-01-27T16:36 | 54.46627 | 10.41374 | 10.174 | 109.3 |
| 2026-01-27T16:46 | 54.45779 | 10.46104 | 10.391 | 107.1 |
| 2026-01-27T16:56 | 54.44973 | 10.49276 | 7.268 | 113.6 |
| 2026-01-27T17:06 | 54.45139 | 10.49663 | 1.009 | 53.6 |
| 2026-01-27T17:16 | 54.47817 | 10.49872 | 9.664 | 2.6 |
| 2026-01-27T17:26 | 54.50751 | 10.49878 | 10.573 | 0.1 |
| 2026-01-27T17:36 | 54.53697 | 10.49866 | 10.620 | 359.9 |
| 2026-01-27T17:46 | 54.56518 | 10.49671 | 10.175 | 357.7 |
| 2026-01-27T17:56 | 54.57061 | 10.49765 | 1.967 | 5.7 |
| 2026-01-27T18:06 | 54.57760 | 10.50203 | 2.683 | 20.0 |
| 2026-01-27T18:16 | 54.60775 | 10.50019 | 10.872 | 358.0 |
| 2026-01-27T18:26 | 54.63829 | 10.49646 | 11.038 | 355.9 |
| 2026-01-27T18:36 | 54.66901 | 10.48990 | 11.157 | 352.9 |
| 2026-01-27T18:46 | 54.68124 | 10.49569 | 4.570 | 15.4 |
| 2026-01-27T18:56 | 54.68055 | 10.50135 | 1.208 | 101.8 |
| 2026-01-27T19:06 | 54.67234 | 10.53993 | 8.584 | 110.1 |
| 2026-01-27T19:16 | 54.66233 | 10.58253 | 9.603 | 112.0 |
| 2026-01-27T19:26 | 54.65374 | 10.62586 | 9.569 | 108.9 |
| 2026-01-27T19:36 | 54.64961 | 10.66327 | 7.960 | 100.8 |
| 2026-01-27T19:46 | 54.65066 | 10.66783 | 1.024 | 68.4 |
| 2026-01-27T19:56 | 54.63239 | 10.66631 | 6.592 | 182.8 |
| 2026-01-27T20:06 | 54.60367 | 10.66520 | 10.355 | 181.3 |
| 2026-01-27T20:16 | 54.57624 | 10.66392 | 9.889 | 181.6 |
| 2026-01-27T20:26 | 54.55033 | 10.66057 | 9.365 | 184.3 |
| 2026-01-27T20:36 | 54.54893 | 10.66390 | 0.861 | 125.8 |
| 2026-01-27T20:46 | 54.54518 | 10.66587 | 1.415 | 163.0 |
| 2026-01-27T20:56 | 54.51734 | 10.66422 | 10.041 | 182.0 |
| 2026-01-27T21:06 | 54.48817 | 10.66413 | 10.512 | 180.1 |
| 2026-01-27T21:16 | 54.45837 | 10.66508 | 10.745 | 178.9 |
| 2026-01-27T21:26 | 54.44127 | 10.66734 | 6.180 | 175.6 |
| 2026-01-27T21:36 | 54.44068 | 10.67377 | 1.366 | 99.0 |
| 2026-01-27T21:46 | 54.45938 | 10.70354 | 9.196 | 42.8 |
| 2026-01-27T21:56 | 54.48135 | 10.73520 | 10.336 | 40.0 |
| 2026-01-27T22:06 | 54.50284 | 10.76665 | 10.176 | 40.4 |
| 2026-01-27T22:16 | 54.52257 | 10.79837 | 9.738 | 43.1 |
| 2026-01-27T22:26 | 54.54404 | 10.82373 | 9.389 | 34.5 |
| 2026-01-27T22:36 | 54.54530 | 10.83073 | 1.536 | 72.8 |
| 2026-01-27T22:46 | 54.56915 | 10.82839 | 8.610 | 356.7 |
| 2026-01-27T22:56 | 54.60037 | 10.82889 | 11.251 | 0.5 |
| 2026-01-27T23:06 | 54.62923 | 10.82966 | 10.405 | 0.9 |
| 2026-01-27T23:16 | 54.63427 | 10.83370 | 2.004 | 25.0 |
| 2026-01-27T23:26 | 54.63641 | 10.85331 | 4.171 | 79.3 |
| 2026-01-27T23:36 | 54.63469 | 10.89933 | 9.644 | 93.7 |
| 2026-01-27T23:46 | 54.63159 | 10.94819 | 10.276 | 96.2 |
| 2026-01-27T23:56 | 54.62795 | 10.99218 | 9.292 | 98.1 |
| 2026-01-28T00:06 | 54.63114 | 10.99785 | 1.651 | 45.9 |
| 2026-01-28T00:16 | 54.62210 | 11.02932 | 7.342 | 116.3 |
| 2026-01-28T00:26 | 54.60633 | 11.06647 | 9.630 | 126.2 |
| 2026-01-28T00:36 | 54.59051 | 11.10386 | 9.683 | 126.1 |
| 2026-01-28T00:46 | 54.57741 | 11.14311 | 9.476 | 119.9 |
| 2026-01-28T00:56 | 54.56462 | 11.18193 | 9.346 | 119.5 |
| 2026-01-28T01:06 | 54.55309 | 11.22347 | 9.643 | 115.5 |
| 2026-01-28T01:16 | 54.54240 | 11.26593 | 9.694 | 113.4 |
| 2026-01-28T01:26 | 54.53345 | 11.30898 | 9.583 | 109.7 |
| 2026-01-28T01:36 | 54.53248 | 11.32277 | 2.912 | 96.9 |
| 2026-01-28T01:46 | 54.53447 | 11.32904 | 1.497 | 61.4 |
| 2026-01-28T01:56 | 54.51117 | 11.33686 | 8.558 | 168.9 |
| 2026-01-28T02:06 | 54.48548 | 11.34572 | 9.445 | 168.7 |
| 2026-01-28T02:16 | 54.45982 | 11.35568 | 9.479 | 167.2 |
| 2026-01-28T02:26 | 54.43405 | 11.36538 | 9.509 | 167.6 |
| 2026-01-28T02:36 | 54.42123 | 11.37213 | 4.837 | 162.9 |
| 2026-01-28T02:46 | 54.41817 | 11.37564 | 1.326 | 146.2 |
| 2026-01-28T02:56 | 54.39224 | 11.37311 | 9.361 | 183.3 |
| 2026-01-28T03:06 | 54.36451 | 11.37086 | 10.006 | 182.7 |
| 2026-01-28T03:16 | 54.33631 | 11.37145 | 10.166 | 179.3 |
| 2026-01-28T03:26 | 54.32847 | 11.37367 | 2.865 | 170.6 |
| 2026-01-28T03:36 | 54.32656 | 11.38130 | 1.748 | 113.2 |
| 2026-01-28T03:46 | 54.29855 | 11.36527 | 10.644 | 198.5 |
| 2026-01-28T03:56 | 54.27073 | 11.34862 | 10.624 | 199.3 |
| 2026-01-28T04:06 | 54.24493 | 11.33429 | 9.778 | 198.0 |
| 2026-01-28T04:16 | 54.24627 | 11.34446 | 2.200 | 77.3 |
| 2026-01-28T04:26 | 54.23543 | 11.33975 | 4.033 | 194.3 |
| 2026-01-28T04:36 | 54.20758 | 11.32178 | 10.732 | 200.7 |
| 2026-01-28T04:46 | 54.17937 | 11.30612 | 10.692 | 198.0 |
| 2026-01-28T04:56 | 54.15095 | 11.28957 | 10.823 | 198.9 |
| 2026-01-28T05:06 | 54.14001 | 11.28627 | 4.007 | 190.1 |
| 2026-01-28T05:16 | 54.14181 | 11.29826 | 2.620 | 75.6 |
| 2026-01-28T05:26 | 54.15243 | 11.33863 | 9.360 | 65.8 |
| 2026-01-28T05:36 | 54.16322 | 11.38137 | 9.841 | 66.7 |
| 2026-01-28T05:46 | 54.16943 | 11.40582 | 5.636 | 66.6 |
| 2026-01-28T05:56 | 54.17177 | 11.41555 | 2.223 | 67.8 |
| 2026-01-28T06:06 | 54.18188 | 11.45743 | 9.575 | 67.6 |
| 2026-01-28T06:16 | 54.19296 | 11.49878 | 9.609 | 65.4 |
| 2026-01-28T06:26 | 54.19865 | 11.54017 | 8.986 | 76.8 |
| 2026-01-28T06:36 | 54.19975 | 11.54866 | 1.837 | 77.5 |
| 2026-01-28T06:46 | 54.21827 | 11.55012 | 6.680 | 2.6 |
| 2026-01-28T06:56 | 54.24676 | 11.54805 | 10.278 | 357.6 |
| 2026-01-28T07:06 | 54.27539 | 11.54252 | 10.385 | 353.6 |
| 2026-01-28T07:16 | 54.29055 | 11.53787 | 5.551 | 349.8 |
| 2026-01-28T07:26 | 54.29309 | 11.54238 | 1.322 | 46.1 |
| 2026-01-28T07:36 | 54.32172 | 11.54001 | 10.331 | 357.2 |
| 2026-01-28T07:46 | 54.35114 | 11.54040 | 10.605 | 0.4 |
| 2026-01-28T07:56 | 54.37098 | 11.54063 | 7.151 | 0.4 |
| 2026-01-28T08:06 | 54.37168 | 11.54563 | 1.082 | 76.6 |
| 2026-01-28T08:16 | 54.37098 | 11.57906 | 7.039 | 92.0 |
| 2026-01-28T08:26 | 54.36631 | 11.62222 | 9.239 | 100.5 |
| 2026-01-28T08:36 | 54.36193 | 11.66470 | 9.079 | 100.0 |
| 2026-01-28T08:46 | 54.36281 | 11.67456 | 2.100 | 81.3 |
| 2026-01-28T08:56 | 54.34831 | 11.67283 | 5.239 | 184.0 |
| 2026-01-28T09:06 | 54.32289 | 11.67194 | 9.167 | 181.2 |
| 2026-01-28T09:16 | 54.29687 | 11.67162 | 9.378 | 180.4 |
| 2026-01-28T09:26 | 54.29280 | 11.67588 | 1.720 | 148.5 |
| 2026-01-28T09:36 | 54.28670 | 11.67845 | 2.262 | 166.2 |
| 2026-01-28T09:46 | 54.25954 | 11.67293 | 9.860 | 186.8 |
| 2026-01-28T09:56 | 54.23066 | 11.67031 | 10.423 | 183.0 |
| 2026-01-28T10:06 | 54.20788 | 11.67057 | 8.212 | 179.6 |
| 2026-01-28T10:16 | 54.20938 | 11.67760 | 1.582 | 69.9 |
| 2026-01-28T10:26 | 54.20934 | 11.71088 | 7.030 | 90.1 |
| 2026-01-28T10:36 | 54.20893 | 11.75939 | 10.250 | 90.8 |
| 2026-01-28T10:46 | 54.20796 | 11.80619 | 9.894 | 92.0 |
| 2026-01-28T10:56 | 54.20796 | 11.82583 | 4.149 | 90.0 |
| 2026-01-28T11:06 | 54.21501 | 11.83091 | 2.756 | 22.9 |
| 2026-01-28T11:16 | 54.24292 | 11.83904 | 10.205 | 9.7 |
| 2026-01-28T11:26 | 54.27268 | 11.82866 | 10.948 | 348.5 |
| 2026-01-28T11:36 | 54.29963 | 11.81710 | 10.013 | 345.9 |
| 2026-01-28T11:46 | 54.30201 | 11.82319 | 1.544 | 56.2 |
| 2026-01-28T11:56 | 54.32725 | 11.82288 | 9.100 | 359.6 |
| 2026-01-28T12:06 | 54.35427 | 11.83803 | 10.247 | 18.1 |
| 2026-01-28T12:16 | 54.38200 | 11.83080 | 10.108 | 351.4 |
| 2026-01-28T12:26 | 54.39689 | 11.82484 | 5.513 | 346.9 |
| 2026-01-28T12:36 | 54.39748 | 11.82781 | 0.661 | 71.2 |
| 2026-01-28T12:46 | 54.40362 | 11.78384 | 9.507 | 283.5 |
| 2026-01-28T12:56 | 54.41268 | 11.73118 | 11.544 | 286.5 |
| 2026-01-28T13:06 | 54.42272 | 11.67816 | 11.718 | 288.0 |
| 2026-01-28T13:16 | 54.42883 | 11.67272 | 2.479 | 332.5 |
| 2026-01-28T13:26 | 54.42974 | 11.66186 | 2.305 | 278.2 |
| 2026-01-28T13:36 | 54.44441 | 11.61133 | 11.861 | 296.5 |
| 2026-01-28T13:46 | 54.45807 | 11.55671 | 12.484 | 293.3 |
| 2026-01-28T13:58 | 54.46650 | 11.53867 | ||
| 2026-01-28T14:08 | 54.46747 | 11.54101 | 0.603 | 54.7 |
| 2026-01-28T14:18 | 54.48320 | 11.50211 | 9.940 | 304.8 |
| 2026-01-28T14:28 | 54.49881 | 11.45354 | 11.641 | 298.9 |
| 2026-01-28T14:38 | 54.51116 | 11.40241 | 11.613 | 292.6 |
| 2026-01-28T14:48 | 54.52424 | 11.35214 | 11.547 | 294.1 |
| 2026-01-28T14:58 | 54.53854 | 11.30142 | 11.816 | 295.9 |
| 2026-01-28T15:08 | 54.55107 | 11.26207 | 9.403 | 298.7 |
| 2026-01-28T15:18 | 54.56349 | 11.21973 | 9.935 | 296.8 |
| 2026-01-28T15:28 | 54.56901 | 11.16748 | 11.123 | 280.3 |
| 2026-01-28T15:38 | 54.57508 | 11.14140 | 5.883 | 291.8 |
| 2026-01-28T15:48 | 54.57808 | 11.12705 | 3.193 | 289.8 |
| 2026-01-28T15:58 | 54.57909 | 11.12945 | 0.621 | 53.9 |
| 2026-01-28T16:08 | 54.60140 | 11.09545 | 10.739 | 318.5 |
| 2026-01-28T16:18 | 54.62620 | 11.05867 | 11.793 | 319.3 |
| 2026-01-28T16:28 | 54.65064 | 11.02407 | 11.401 | 320.6 |
| 2026-01-28T16:38 | 54.67453 | 10.99053 | 11.101 | 320.9 |
| 2026-01-28T16:48 | 54.69865 | 10.95668 | 11.206 | 320.9 |
| 2026-01-28T16:58 | 54.72319 | 10.92189 | 11.443 | 320.6 |
| 2026-01-28T17:08 | 54.74954 | 10.89102 | 11.472 | 325.9 |
| 2026-01-28T17:18 | 54.78011 | 10.87306 | 11.641 | 341.2 |
| 2026-01-28T17:28 | 54.81052 | 10.85356 | 11.689 | 339.7 |
| 2026-01-28T17:38 | 54.81242 | 10.82153 | 6.703 | 275.9 |
| 2026-01-28T17:48 | 54.81583 | 10.82657 | 1.615 | 40.5 |
| 2026-01-28T17:58 | 54.79535 | 10.80418 | 8.730 | 212.3 |
| 2026-01-28T18:08 | 54.77035 | 10.78240 | 10.089 | 206.7 |
| 2026-01-28T18:18 | 54.74471 | 10.76310 | 10.078 | 203.5 |
| 2026-01-28T18:28 | 54.71802 | 10.74644 | 10.232 | 199.9 |
| 2026-01-28T18:38 | 54.69879 | 10.73260 | 7.509 | 202.6 |
| 2026-01-28T18:48 | 54.70061 | 10.73708 | 1.144 | 55.0 |
| 2026-01-28T18:58 | 54.69789 | 10.69047 | 9.780 | 264.3 |
| 2026-01-28T19:08 | 54.70885 | 10.64088 | 11.079 | 290.9 |
| 2026-01-28T19:18 | 54.72806 | 10.59802 | 11.311 | 307.8 |
| 2026-01-28T19:28 | 54.74757 | 10.55536 | 11.341 | 308.3 |
| 2026-01-28T19:38 | 54.76455 | 10.51033 | 11.206 | 303.1 |
| 2026-01-28T19:48 | 54.77377 | 10.48048 | 7.054 | 298.1 |
| 2026-01-28T19:58 | 54.77362 | 10.48219 | 0.360 | 98.5 |
| 2026-01-28T20:08 | 54.78104 | 10.43290 | 10.611 | 284.6 |
| 2026-01-28T20:18 | 54.78898 | 10.38027 | 11.332 | 284.6 |
| 2026-01-28T20:28 | 54.79435 | 10.32565 | 11.540 | 279.7 |
| 2026-01-28T20:38 | 54.79934 | 10.29862 | 5.911 | 287.8 |
| 2026-01-28T20:48 | 54.80062 | 10.30139 | 0.737 | 51.5 |
| 2026-01-28T20:58 | 54.82311 | 10.27203 | 10.155 | 323.0 |
| 2026-01-28T21:08 | 54.85000 | 10.24508 | 11.197 | 330.0 |
| 2026-01-28T21:18 | 54.87764 | 10.21984 | 11.260 | 332.2 |
| 2026-01-28T21:28 | 54.88940 | 10.21148 | 4.583 | 337.8 |
| 2026-01-28T21:38 | 54.89187 | 10.21908 | 1.812 | 60.6 |
| 2026-01-28T21:48 | 54.91369 | 10.18722 | 10.280 | 319.9 |
| 2026-01-28T21:58 | 54.93842 | 10.15183 | 11.551 | 320.5 |
| 2026-01-28T22:08 | 54.95893 | 10.12249 | 9.578 | 320.5 |
| 2026-01-28T22:18 | 54.96058 | 10.12788 | 1.267 | 62.0 |
| 2026-01-28T22:28 | 54.97167 | 10.11397 | 4.928 | 324.2 |
| 2026-01-28T22:38 | 54.99689 | 10.07759 | 11.811 | 320.3 |
| 2026-01-28T22:48 | 55.01660 | 10.05375 | 8.654 | 325.2 |
| 2026-01-28T22:58 | 55.01880 | 10.05822 | 1.218 | 49.4 |
| 2026-01-28T23:08 | 55.01073 | 10.06293 | 3.071 | 161.4 |
| 2026-01-28T23:18 | 54.98210 | 10.06891 | 10.393 | 173.2 |
| 2026-01-28T23:28 | 54.95347 | 10.07828 | 10.501 | 169.3 |
| 2026-01-28T23:38 | 54.92560 | 10.08967 | 10.322 | 166.8 |
| 2026-01-28T23:48 | 54.89806 | 10.10228 | 10.264 | 165.2 |
| 2026-01-28T23:58 | 54.87032 | 10.11506 | 10.348 | 165.1 |
| 2026-01-29T00:08 | 54.84232 | 10.12529 | 10.313 | 168.1 |
| 2026-01-29T00:18 | 54.81592 | 10.12854 | 9.540 | 175.9 |
| 2026-01-29T00:28 | 54.81683 | 10.13395 | 1.173 | 73.7 |
| 2026-01-29T00:38 | 54.81078 | 10.13332 | 2.185 | 183.4 |
| 2026-01-29T00:48 | 54.78396 | 10.13771 | 9.711 | 174.6 |
| 2026-01-29T00:58 | 54.75632 | 10.14145 | 9.995 | 175.5 |
| 2026-01-29T01:08 | 54.72775 | 10.14246 | 10.299 | 178.8 |
| 2026-01-29T01:18 | 54.70644 | 10.14523 | 7.704 | 175.7 |
| 2026-01-29T01:28 | 54.71126 | 10.14864 | 1.877 | 22.3 |
| 2026-01-29T01:38 | 54.69257 | 10.15046 | 6.745 | 176.8 |
| 2026-01-29T01:48 | 54.66394 | 10.15210 | 10.326 | 178.1 |
| 2026-01-29T01:58 | 54.63542 | 10.14738 | 10.329 | 185.5 |
| 2026-01-29T02:08 | 54.63021 | 10.15099 | 2.022 | 158.1 |
| 2026-01-29T02:18 | 54.63429 | 10.16090 | 2.541 | 54.6 |
| 2026-01-29T02:28 | 54.64718 | 10.20039 | 9.473 | 60.6 |
| 2026-01-29T02:38 | 54.66050 | 10.24089 | 9.732 | 60.4 |
| 2026-01-29T02:48 | 54.67393 | 10.28211 | 9.880 | 60.6 |
| 2026-01-29T02:58 | 54.68691 | 10.32419 | 9.956 | 62.0 |
| 2026-01-29T03:08 | 54.69251 | 10.33456 | 2.960 | 47.0 |
| 2026-01-29T03:18 | 54.69476 | 10.34250 | 1.847 | 63.9 |
| 2026-01-29T03:28 | 54.70496 | 10.34055 | 3.699 | 353.7 |
| 2026-01-29T03:38 | 54.72054 | 10.33644 | 5.680 | 351.3 |
| 2026-01-29T03:48 | 54.73676 | 10.33258 | 5.901 | 352.1 |
| 2026-01-29T03:58 | 54.75343 | 10.33175 | 6.012 | 358.3 |
| 2026-01-29T04:08 | 54.77017 | 10.33168 | 6.034 | 359.9 |
| 2026-01-29T04:18 | 54.78751 | 10.33208 | 6.252 | 0.8 |
| 2026-01-29T04:28 | 54.80577 | 10.33167 | 6.582 | 359.3 |
| 2026-01-29T04:38 | 54.82197 | 10.33474 | 5.873 | 6.2 |
| 2026-01-29T04:48 | 54.82513 | 10.34237 | 1.955 | 54.4 |
| 2026-01-29T04:58 | 54.82785 | 10.34394 | 1.033 | 18.3 |
| 2026-01-29T05:08 | 54.83033 | 10.34782 | 1.205 | 42.1 |
| 2026-01-29T05:18 | 54.83249 | 10.34859 | 0.798 | 11.6 |
| 2026-01-29T05:28 | 54.83327 | 10.34573 | 0.656 | 295.1 |
| 2026-01-29T05:38 | 54.81830 | 10.32910 | 6.410 | 212.7 |
| 2026-01-29T05:48 | 54.80255 | 10.31747 | 6.173 | 203.1 |
| 2026-01-29T05:58 | 54.78567 | 10.31381 | 6.132 | 187.2 |
| 2026-01-29T06:08 | 54.76883 | 10.31362 | 6.068 | 180.4 |
| 2026-01-29T06:18 | 54.75339 | 10.31991 | 5.718 | 166.7 |
| 2026-01-29T06:28 | 54.73745 | 10.32790 | 5.984 | 163.8 |
| 2026-01-29T06:38 | 54.71999 | 10.32816 | 6.292 | 179.5 |
| 2026-01-29T06:48 | 54.70558 | 10.34366 | 6.120 | 148.1 |
| 2026-01-29T06:58 | 54.68957 | 10.37377 | 8.533 | 132.5 |
| 2026-01-29T07:08 | 54.69115 | 10.38945 | 3.323 | 80.2 |
| 2026-01-29T07:18 | 54.68862 | 10.39957 | 2.301 | 113.3 |
| 2026-01-29T07:28 | 54.69241 | 10.38977 | 2.461 | 303.8 |
| 2026-01-29T07:38 | 54.70268 | 10.33957 | 11.116 | 289.5 |
| 2026-01-29T07:48 | 54.71128 | 10.28773 | 11.256 | 286.0 |
| 2026-01-29T07:58 | 54.72226 | 10.23422 | 11.846 | 289.5 |
| 2026-01-29T08:08 | 54.73411 | 10.18064 | 11.965 | 290.9 |
| 2026-01-29T08:18 | 54.74659 | 10.12831 | 11.804 | 292.4 |
| 2026-01-29T08:28 | 54.74854 | 10.11403 | 3.059 | 283.3 |
| 2026-01-29T08:38 | 54.74866 | 10.11671 | 0.561 | 85.6 |
| 2026-01-29T08:48 | 54.74840 | 10.11694 | 0.104 | 152.8 |
| 2026-01-29T08:58 | 54.75089 | 10.11367 | 1.126 | 322.7 |
| 2026-01-29T09:08 | 54.74932 | 10.11398 | 0.570 | 173.4 |
| 2026-01-29T09:18 | 54.72793 | 10.12941 | 8.352 | 157.3 |
| 2026-01-29T09:28 | 54.70297 | 10.14489 | 9.558 | 160.2 |
| 2026-01-29T09:38 | 54.67921 | 10.15963 | 9.104 | 160.2 |
| 2026-01-29T09:48 | 54.65563 | 10.17718 | 9.253 | 156.7 |
| 2026-01-29T09:58 | 54.63141 | 10.19417 | 9.427 | 157.9 |
| 2026-01-29T10:08 | 54.60748 | 10.21012 | 9.247 | 158.8 |
| 2026-01-29T10:18 | 54.58424 | 10.22563 | 8.984 | 158.8 |
| 2026-01-29T10:28 | 54.56033 | 10.23994 | 9.123 | 160.8 |
| 2026-01-29T10:38 | 54.53487 | 10.25114 | 9.474 | 165.6 |
| 2026-01-29T10:48 | 54.50905 | 10.25890 | 9.446 | 170.1 |
| 2026-01-29T10:58 | 54.48095 | 10.24447 | 10.571 | 196.6 |
| 2026-01-29T11:08 | 54.45209 | 10.23972 | 10.448 | 185.5 |
| 2026-01-29T11:18 | 54.42598 | 10.21138 | 11.137 | 212.3 |
| 2026-01-29T11:28 | 54.39695 | 10.19807 | 10.833 | 195.0 |
| 2026-01-29T11:38 | 54.37163 | 10.17488 | 10.348 | 208.1 |
| 2026-01-29T11:48 | 54.34535 | 10.16228 | 9.834 | 195.7 |
| 2026-01-29T11:58 | 54.33027 | 10.17305 | 5.893 | 157.3 |
| 2026-01-29T12:08 | 54.32852 | 10.17944 | 1.487 | 115.1 |
| 2026-01-29T12:18 | 54.32858 | 10.17942 | 0.025 | 349.6 |
| 2026-01-29T12:28 | 54.32856 | 10.17943 | 0.007 | 168.4 |
| 2026-01-29T12:38 | 54.32854 | 10.17945 | 0.011 | 159.4 |
| 2026-01-29T12:48 | 54.32853 | 10.17945 | 0.003 | 184.2 |
| 2026-01-29T12:58 | 54.32853 | 10.17945 | 0.002 | 6.7 |
| 2026-01-29T13:08 | 54.32851 | 10.17945 | 0.008 | 177.1 |
| 2026-01-29T13:18 | 54.32852 | 10.17945 | 0.003 | 11.0 |
| 2026-01-29T13:28 | 54.32851 | 10.17946 | 0.002 | 160.7 |
| 2026-01-29T13:38 | 54.32854 | 10.17944 | 0.009 | 344.4 |
| 2026-01-29T13:48 | 54.32852 | 10.17946 | 0.006 | 153.1 |
| 2026-01-29T13:58 | 54.32853 | 10.17945 | 0.002 | 329.7 |
| 2026-01-29T14:08 | 54.32853 | 10.17946 | 0.002 | 23.7 |
| 2026-01-29T14:18 | 54.32850 | 10.17947 | 0.010 | 162.0 |
| 2026-01-29T14:28 | 54.32854 | 10.17945 | 0.014 | 343.7 |
| 2026-01-29T14:38 | 54.32852 | 10.17946 | 0.009 | 166.3 |
| 2026-01-29T14:48 | 54.32851 | 10.17946 | 0.002 | 199.3 |
| 2026-01-29T14:58 | 54.32851 | 10.17946 | 0.001 | 149.7 |
| 2026-01-29T15:08 | 54.32851 | 10.17946 | 0.002 | 334.0 |
| 2026-01-29T15:18 | 54.32851 | 10.17947 | 0.002 | 127.2 |
| 2026-01-29T15:28 | 54.32852 | 10.17946 | 0.004 | 332.6 |
| 2026-01-29T15:38 | 54.32852 | 10.17943 | 0.005 | 270.0 |
| 2026-01-29T15:48 | 54.32853 | 10.17945 | 0.005 | 37.2 |
| 2026-01-29T15:58 | 54.32853 | 10.17942 | 0.005 | 266.1 |
| 2026-01-29T16:08 | 54.32853 | 10.17946 | 0.008 | 85.1 |
| 2026-01-29T16:18 | 54.32854 | 10.17945 | 0.003 | 322.1 |
| 2026-01-29T16:28 | 54.32853 | 10.17945 | 0.003 | 196.3 |
| 2026-01-29T16:38 | 54.32852 | 10.17945 | 0.003 | 184.8 |
| 2026-01-29T16:48 | 54.32853 | 10.17945 | 0.004 | 353.3 |
| 2026-01-29T16:58 | 54.32854 | 10.17945 | 0.002 | 36.1 |
| 2026-01-29T17:08 | 54.32854 | 10.17944 | 0.004 | 312.4 |
| 2026-01-29T17:18 | 54.32853 | 10.17944 | 0.003 | 165.4 |
| 2026-01-29T17:28 | 54.32853 | 10.17944 | 0.002 | 169.0 |
| 2026-01-29T17:38 | 54.32853 | 10.17943 | 0.002 | 310.6 |
| 2026-01-29T17:48 | 54.32853 | 10.17944 | 0.003 | 130.6 |
| 2026-01-29T17:58 | 54.32852 | 10.17946 | 0.005 | 133.9 |
| 2026-01-29T18:08 | 54.32853 | 10.17943 | 0.009 | 306.0 |
| 2026-01-29T18:18 | 54.32852 | 10.17946 | 0.009 | 132.4 |
| 2026-01-29T18:28 | 54.32851 | 10.17944 | 0.005 | 251.9 |
| 2026-01-29T18:38 | 54.32852 | 10.17946 | 0.005 | 61.6 |
| 2026-01-29T18:48 | 54.32852 | 10.17945 | 0.002 | 256.3 |
| 2026-01-29T18:58 | 54.32851 | 10.17945 | 0.004 | 186.1 |
| 2026-01-29T19:08 | 54.32851 | 10.17945 | 0.001 | 30.3 |
| 2026-01-29T19:18 | 54.32851 | 10.17945 | 0.000 | 270.0 |
| 2026-01-29T19:28 | 54.32852 | 10.17944 | 0.004 | 348.0 |
| 2026-01-29T19:38 | 54.32851 | 10.17946 | 0.006 | 146.3 |
| 2026-01-29T19:48 | 54.32852 | 10.17945 | 0.006 | 327.8 |
| 2026-01-29T19:58 | 54.32853 | 10.17944 | 0.003 | 343.7 |
| 2026-01-29T20:08 | 54.32852 | 10.17946 | 0.005 | 129.0 |
| 2026-01-29T20:18 | 54.32851 | 10.17945 | 0.004 | 216.2 |
| 2026-01-29T20:28 | 54.32852 | 10.17944 | 0.003 | 325.7 |
| 2026-01-29T20:38 | 54.32851 | 10.17944 | 0.004 | 193.2 |
| 2026-01-29T20:48 | 54.32852 | 10.17942 | 0.005 | 312.0 |
| 2026-01-29T20:58 | 54.32851 | 10.17943 | 0.005 | 140.7 |
| 2026-01-29T21:08 | 54.32851 | 10.17943 | 0.002 | 346.8 |
| 2026-01-29T21:18 | 54.32851 | 10.17944 | 0.001 | 30.3 |
| 2026-01-29T21:28 | 54.32852 | 10.17944 | 0.002 | 25.1 |
| 2026-01-29T21:38 | 54.32853 | 10.17944 | 0.003 | 10.7 |
| 2026-01-29T21:48 | 54.32852 | 10.17945 | 0.001 | 123.8 |
| 2026-01-29T21:58 | 54.32852 | 10.17946 | 0.002 | 134.5 |
| 2026-01-29T22:08 | 54.32852 | 10.17942 | 0.008 | 280.8 |
| 2026-01-29T22:18 | 54.32852 | 10.17946 | 0.009 | 109.3 |
| 2026-01-29T22:28 | 54.32853 | 10.17946 | 0.006 | 0.0 |
| 2026-01-29T22:38 | 54.32853 | 10.17946 | 0.002 | 163.7 |
| 2026-01-29T22:48 | 54.32853 | 10.17943 | 0.007 | 279.4 |
| 2026-01-29T22:58 | 54.32852 | 10.17944 | 0.003 | 133.6 |
| 2026-01-29T23:08 | 54.32851 | 10.17946 | 0.006 | 133.3 |
| 2026-01-29T23:18 | 54.32851 | 10.17944 | 0.004 | 275.8 |
| 2026-01-29T23:28 | 54.32851 | 10.17946 | 0.004 | 130.6 |
| 2026-01-29T23:38 | 54.32852 | 10.17945 | 0.005 | 331.8 |
| 2026-01-29T23:48 | 54.32851 | 10.17946 | 0.004 | 139.8 |
| 2026-01-29T23:58 | 54.32852 | 10.17947 | 0.005 | 16.3 |
| 2026-01-30T00:08 | 54.32852 | 10.17944 | 0.005 | 273.9 |
| 2026-01-30T00:18 | 54.32852 | 10.17946 | 0.005 | 77.4 |
| 2026-01-30T00:28 | 54.32852 | 10.17946 | 0.001 | 201.3 |
| 2026-01-30T00:38 | 54.32852 | 10.17946 | 0.001 | 180.0 |
| 2026-01-30T00:48 | 54.32850 | 10.17945 | 0.006 | 204.7 |
| 2026-01-30T00:58 | 54.32852 | 10.17946 | 0.007 | 20.7 |
| 2026-01-30T01:08 | 54.32851 | 10.17944 | 0.007 | 223.8 |
| 2026-01-30T01:18 | 54.32851 | 10.17945 | 0.002 | 64.0 |
| 2026-01-30T01:28 | 54.32852 | 10.17944 | 0.003 | 345.4 |
| 2026-01-30T01:38 | 54.32852 | 10.17944 | 0.001 | 16.3 |
| 2026-01-30T01:48 | 54.32852 | 10.17944 | 0.002 | 173.3 |
| 2026-01-30T01:58 | 54.32851 | 10.17944 | 0.002 | 229.4 |
| 2026-01-30T02:08 | 54.32851 | 10.17945 | 0.003 | 96.1 |
| 2026-01-30T02:18 | 54.32852 | 10.17944 | 0.005 | 338.0 |
| 2026-01-30T02:28 | 54.32852 | 10.17943 | 0.003 | 243.9 |
| 2026-01-30T02:38 | 54.32851 | 10.17945 | 0.005 | 123.1 |
| 2026-01-30T02:48 | 54.32851 | 10.17944 | 0.001 | 270.0 |
| 2026-01-30T02:58 | 54.32852 | 10.17944 | 0.002 | 302.7 |
| 2026-01-30T03:08 | 54.32852 | 10.17944 | 0.001 | 8.3 |
| 2026-01-30T03:18 | 54.32851 | 10.17944 | 0.002 | 191.0 |
| 2026-01-30T03:28 | 54.32851 | 10.17944 | 0.001 | 171.7 |
| 2026-01-30T03:38 | 54.32853 | 10.17943 | 0.007 | 356.5 |
| 2026-01-30T03:48 | 54.32852 | 10.17944 | 0.003 | 167.6 |
| 2026-01-30T03:58 | 54.32852 | 10.17943 | 0.002 | 210.3 |
| 2026-01-30T04:08 | 54.32851 | 10.17944 | 0.002 | 129.1 |
| 2026-01-30T04:18 | 54.32851 | 10.17943 | 0.003 | 275.6 |
| 2026-01-30T04:28 | 54.32852 | 10.17945 | 0.007 | 56.6 |
| 2026-01-30T04:38 | 54.32852 | 10.17945 | 0.001 | 310.6 |
| 2026-01-30T04:48 | 54.32852 | 10.17944 | 0.003 | 210.3 |
| 2026-01-30T04:58 | 54.32852 | 10.17944 | 0.002 | 310.6 |
| 2026-01-30T05:08 | 54.32852 | 10.17945 | 0.002 | 117.2 |
| 2026-01-30T05:18 | 54.32852 | 10.17944 | 0.001 | 270.0 |
| 2026-01-30T05:28 | 54.32852 | 10.17944 | 0.001 | 16.3 |
| 2026-01-30T05:38 | 54.32852 | 10.17944 | 0.001 | 0.0 |
| 2026-01-30T05:48 | 54.32853 | 10.17943 | 0.005 | 341.2 |
| 2026-01-30T05:58 | 54.32852 | 10.17945 | 0.006 | 143.1 |
| 2026-01-30T06:08 | 54.32854 | 10.17945 | 0.006 | 352.2 |
| 2026-01-30T06:18 | 54.32854 | 10.17942 | 0.005 | 265.8 |
| 2026-01-30T06:28 | 54.32851 | 10.17943 | 0.010 | 168.2 |
| 2026-01-30T06:38 | 54.32854 | 10.17944 | 0.013 | 3.8 |
| 2026-01-30T06:48 | 54.32853 | 10.17944 | 0.003 | 167.6 |
| 2026-01-30T06:58 | 54.32851 | 10.17944 | 0.010 | 184.9 |
| 2026-01-30T07:08 | 54.32852 | 10.17943 | 0.003 | 339.9 |
| 2026-01-30T07:18 | 54.32852 | 10.17944 | 0.003 | 30.3 |
| 2026-01-30T07:28 | 54.32852 | 10.17944 | 0.000 | 90.0 |
| 2026-01-30T07:38 | 54.32852 | 10.17944 | 0.000 | 210.3 |
| 2026-01-30T07:48 | 54.32853 | 10.17944 | 0.003 | 0.0 |
| 2026-01-30T07:58 | 54.32853 | 10.17944 | 0.001 | 21.3 |
| 2026-01-30T08:08 | 54.32852 | 10.17945 | 0.003 | 142.1 |
| 2026-01-30T08:18 | 54.32854 | 10.17945 | 0.004 | 13.2 |
| 2026-01-30T08:28 | 54.32853 | 10.17944 | 0.004 | 225.1 |
| 2026-01-30T08:38 | 54.32852 | 10.17945 | 0.004 | 160.7 |
| 2026-01-30T08:48 | 54.32852 | 10.17944 | 0.002 | 318.8 |
| 2026-01-30T08:58 | 54.32854 | 10.17943 | 0.005 | 335.8 |
| 2026-01-30T09:08 | 54.32852 | 10.17944 | 0.006 | 163.4 |
| 2026-01-30T09:18 | 54.32853 | 10.17945 | 0.004 | 51.7 |
| 2026-01-30T09:28 | 54.32852 | 10.17946 | 0.003 | 165.4 |
| 2026-01-30T09:38 | 54.32847 | 10.17943 | 0.016 | 198.5 |
| 2026-01-30T09:48 | 54.32847 | 10.17943 | 0.001 | 251.1 |
| 2026-01-30T09:58 | 54.32850 | 10.17944 | 0.010 | 13.4 |
| 2026-01-30T10:08 | 54.32851 | 10.17945 | 0.003 | 33.7 |
| 2026-01-30T10:18 | 54.32852 | 10.17946 | 0.005 | 20.6 |
| 2026-01-30T10:28 | 54.32854 | 10.17945 | 0.005 | 341.5 |
| 2026-01-30T10:38 | 54.32851 | 10.17944 | 0.010 | 184.8 |
| 2026-01-30T10:48 | 54.32852 | 10.17946 | 0.007 | 30.3 |
| 2026-01-30T10:58 | 54.32852 | 10.17946 | 0.003 | 203.7 |
| 2026-01-30T11:08 | 54.32853 | 10.17944 | 0.004 | 325.0 |
| 2026-01-30T11:18 | 54.32853 | 10.17947 | 0.005 | 61.4 |
| 2026-01-30T11:28 | 54.32850 | 10.17944 | 0.011 | 208.5 |
| 2026-01-30T11:38 | 54.32851 | 10.17945 | 0.003 | 46.5 |
| 2026-01-30T11:48 | 54.32853 | 10.17943 | 0.008 | 339.6 |
| 2026-01-30T11:58 | 54.32854 | 10.17943 | 0.002 | 314.4 |
| 2026-01-30T12:08 | 54.32854 | 10.17942 | 0.002 | 270.0 |
| 2026-01-30T12:18 | 54.32855 | 10.17942 | 0.005 | 14.1 |
| 2026-01-30T12:28 | 54.32852 | 10.17944 | 0.012 | 162.8 |
| 2026-01-30T12:38 | 54.32850 | 10.17943 | 0.007 | 195.5 |
| 2026-01-30T12:48 | 54.32852 | 10.17945 | 0.009 | 31.5 |
| 2026-01-30T12:58 | 54.32851 | 10.17944 | 0.003 | 210.3 |
| 2026-01-30T13:08 | 54.32851 | 10.17946 | 0.003 | 97.5 |
| 2026-01-30T13:18 | 54.32852 | 10.17945 | 0.003 | 315.8 |
| 2026-01-30T13:28 | 54.32852 | 10.17946 | 0.003 | 37.9 |
| 2026-01-30T13:38 | 54.32852 | 10.17946 | 0.003 | 180.0 |
| 2026-01-30T13:48 | 54.32851 | 10.17946 | 0.002 | 149.7 |
| 2026-01-30T13:58 | 54.32852 | 10.17946 | 0.004 | 9.1 |
| 2026-01-30T14:08 | 54.32851 | 10.17946 | 0.004 | 183.3 |
| 2026-01-30T14:18 | 54.32859 | 10.17924 | 0.055 | 298.8 |
| 2026-01-30T14:28 | 54.33100 | 10.17164 | 1.820 | 298.5 |
| 2026-01-30T14:38 | 54.34727 | 10.16595 | 5.984 | 348.4 |
| 2026-01-30T14:48 | 54.37373 | 10.18336 | 10.220 | 21.0 |
| 2026-01-30T14:58 | 54.39938 | 10.20331 | 10.152 | 24.4 |
| 2026-01-30T15:08 | 54.42519 | 10.22300 | 10.180 | 24.0 |
| 2026-01-30T15:18 | 54.44793 | 10.25486 | 10.585 | 39.2 |
| 2026-01-30T15:28 | 54.46324 | 10.29600 | 10.251 | 57.4 |
| 2026-01-30T15:38 | 54.47331 | 10.33808 | 9.550 | 67.7 |
| 2026-01-30T15:48 | 54.47617 | 10.38257 | 9.396 | 83.7 |
| 2026-01-30T15:58 | 54.47092 | 10.42843 | 9.812 | 101.1 |
| 2026-01-30T16:08 | 54.46540 | 10.47401 | 9.774 | 101.7 |
| 2026-01-30T16:18 | 54.46035 | 10.51951 | 9.725 | 100.8 |
| 2026-01-30T16:28 | 54.45538 | 10.56460 | 9.637 | 100.7 |
| 2026-01-30T16:38 | 54.45038 | 10.60972 | 9.647 | 100.8 |
| 2026-01-30T16:48 | 54.44787 | 10.65661 | 9.889 | 95.2 |
| 2026-01-30T16:58 | 54.45381 | 10.70055 | 9.474 | 76.9 |
| 2026-01-30T17:08 | 54.46126 | 10.74194 | 9.098 | 72.8 |
| 2026-01-30T17:18 | 54.46904 | 10.78352 | 9.169 | 72.2 |
| 2026-01-30T17:28 | 54.47701 | 10.82484 | 9.136 | 71.7 |
| 2026-01-30T17:38 | 54.49198 | 10.86130 | 9.365 | 54.8 |
| 2026-01-30T17:48 | 54.51539 | 10.88758 | 10.077 | 33.1 |
| 2026-01-30T17:58 | 54.53842 | 10.91475 | 10.068 | 34.5 |
| 2026-01-30T18:08 | 54.56136 | 10.94115 | 9.948 | 33.8 |
| 2026-01-30T18:18 | 54.57679 | 10.97559 | 9.108 | 52.4 |
| 2026-01-30T18:28 | 54.58315 | 11.01291 | 8.143 | 73.6 |
| 2026-01-30T18:38 | 54.58010 | 11.05184 | 8.224 | 97.7 |
| 2026-01-30T18:48 | 54.57846 | 11.09436 | 8.922 | 93.8 |
| 2026-01-30T18:58 | 54.57685 | 11.13786 | 9.127 | 93.6 |
| 2026-01-30T19:08 | 54.56680 | 11.17740 | 9.037 | 113.6 |
| 2026-01-30T19:18 | 54.55615 | 11.21593 | 8.938 | 115.4 |
| 2026-01-30T19:28 | 54.54752 | 11.25226 | 8.224 | 112.2 |
| 2026-01-30T19:38 | 54.53196 | 11.27484 | 7.336 | 139.8 |
| 2026-01-30T19:48 | 54.51201 | 11.28962 | 7.830 | 156.7 |
| 2026-01-30T19:58 | 54.49245 | 11.30466 | 7.726 | 155.9 |
| 2026-01-30T20:08 | 54.47314 | 11.31996 | 7.663 | 155.2 |
| 2026-01-30T20:18 | 54.45273 | 11.33402 | 7.929 | 158.1 |
| 2026-01-30T20:28 | 54.43169 | 11.34747 | 8.091 | 159.6 |
| 2026-01-30T20:38 | 54.40880 | 11.36413 | 8.961 | 157.0 |
| 2026-01-30T20:48 | 54.38505 | 11.38176 | 9.328 | 156.6 |
| 2026-01-30T20:58 | 54.36134 | 11.39985 | 9.358 | 156.0 |
| 2026-01-30T21:08 | 54.33802 | 11.41831 | 9.260 | 155.2 |
| 2026-01-30T21:18 | 54.31387 | 11.43676 | 9.533 | 155.9 |
| 2026-01-30T21:28 | 54.28874 | 11.45655 | 9.971 | 155.3 |
| 2026-01-30T21:38 | 54.26318 | 11.47837 | 10.299 | 153.4 |
| 2026-01-30T21:48 | 54.23718 | 11.50167 | 10.585 | 152.3 |
| 2026-01-30T21:58 | 54.21132 | 11.52327 | 10.375 | 153.9 |
| 2026-01-30T22:08 | 54.18542 | 11.54476 | 10.380 | 154.0 |
| 2026-01-30T22:18 | 54.15913 | 11.56662 | 10.543 | 154.0 |
| 2026-01-30T22:28 | 54.14196 | 11.57962 | 6.771 | 156.0 |
| 2026-01-30T22:38 | 54.13120 | 11.59154 | 4.628 | 147.0 |
| 2026-01-30T22:48 | 54.12668 | 11.59925 | 2.306 | 134.9 |
| 2026-01-30T22:58 | 54.12644 | 11.60000 | 0.180 | 118.1 |
| 2026-01-30T23:08 | 54.13010 | 11.59992 | 1.317 | 359.2 |
| 2026-01-30T23:18 | 54.13472 | 11.60092 | 1.679 | 7.2 |
| 2026-01-30T23:28 | 54.13918 | 11.60149 | 1.611 | 4.3 |
| 2026-01-30T23:38 | 54.14319 | 11.60145 | 1.445 | 359.7 |
| 2026-01-30T23:48 | 54.14563 | 11.60199 | 0.888 | 7.4 |
| 2026-01-30T23:58 | 54.14131 | 11.59906 | 1.674 | 201.7 |
| 2026-01-31T00:08 | 54.13613 | 11.59584 | 1.988 | 200.1 |
| 2026-01-31T00:18 | 54.13028 | 11.59356 | 2.163 | 192.9 |
| 2026-01-31T00:28 | 54.12697 | 11.59219 | 1.230 | 193.6 |
| 2026-01-31T00:38 | 54.12796 | 11.58841 | 0.877 | 294.1 |
| 2026-01-31T00:48 | 54.12977 | 11.58570 | 0.869 | 318.8 |
| 2026-01-31T00:58 | 54.13135 | 11.58394 | 0.680 | 326.6 |
| 2026-01-31T01:08 | 54.13092 | 11.58496 | 0.267 | 125.6 |
| 2026-01-31T01:18 | 54.12934 | 11.58450 | 0.576 | 189.8 |
| 2026-01-31T01:28 | 54.13144 | 11.58300 | 0.820 | 337.2 |
| 2026-01-31T01:38 | 54.13337 | 11.58210 | 0.720 | 344.8 |
| 2026-01-31T01:48 | 54.13202 | 11.59054 | 1.851 | 105.2 |
| 2026-01-31T01:58 | 54.13095 | 11.59780 | 1.583 | 104.1 |
| 2026-01-31T02:08 | 54.13217 | 11.60126 | 0.854 | 59.0 |
| 2026-01-31T02:18 | 54.13473 | 11.60215 | 0.939 | 11.6 |
| 2026-01-31T02:28 | 54.13730 | 11.60329 | 0.959 | 14.6 |
| 2026-01-31T02:38 | 54.14001 | 11.60521 | 1.058 | 22.5 |
| 2026-01-31T02:48 | 54.14268 | 11.60755 | 1.083 | 27.3 |
| 2026-01-31T02:58 | 54.14542 | 11.60923 | 1.048 | 19.7 |
| 2026-01-31T03:08 | 54.14789 | 11.60979 | 0.897 | 7.7 |
| 2026-01-31T03:18 | 54.15059 | 11.61239 | 1.119 | 29.3 |
| 2026-01-31T03:28 | 54.15335 | 11.61453 | 1.091 | 24.5 |
| 2026-01-31T03:38 | 54.15530 | 11.61265 | 0.807 | 330.5 |
| 2026-01-31T03:48 | 54.15715 | 11.61029 | 0.834 | 323.3 |
| 2026-01-31T03:58 | 54.15916 | 11.61288 | 0.907 | 37.1 |
| 2026-01-31T04:08 | 54.15873 | 11.61618 | 0.717 | 102.6 |
| 2026-01-31T04:18 | 54.15870 | 11.62035 | 0.882 | 90.8 |
| 2026-01-31T04:28 | 54.15871 | 11.62451 | 0.880 | 89.7 |
| 2026-01-31T04:38 | 54.15873 | 11.62752 | 0.635 | 89.2 |
| 2026-01-31T04:48 | 54.15898 | 11.63025 | 0.586 | 81.2 |
| 2026-01-31T04:58 | 54.15926 | 11.63306 | 0.602 | 80.5 |
| 2026-01-31T05:08 | 54.15573 | 11.62846 | 1.601 | 217.5 |
| 2026-01-31T05:18 | 54.15127 | 11.62292 | 1.989 | 216.1 |
| 2026-01-31T05:28 | 54.14573 | 11.61679 | 2.380 | 213.0 |
| 2026-01-31T05:38 | 54.14365 | 11.59673 | 4.311 | 260.0 |
| 2026-01-31T05:48 | 54.14367 | 11.56089 | 7.584 | 270.1 |
| 2026-01-31T05:58 | 54.14388 | 11.52425 | 7.753 | 270.6 |
| 2026-01-31T06:08 | 54.14426 | 11.48679 | 7.927 | 271.0 |
| 2026-01-31T06:18 | 54.14438 | 11.44888 | 8.023 | 270.3 |
| 2026-01-31T06:28 | 54.14124 | 11.41847 | 6.533 | 260.0 |
| 2026-01-31T06:38 | 54.13840 | 11.41458 | 1.315 | 218.8 |
| 2026-01-31T06:48 | 54.13746 | 11.41693 | 0.600 | 124.1 |
| 2026-01-31T06:58 | 54.13768 | 11.42274 | 1.232 | 86.3 |
| 2026-01-31T07:08 | 54.13740 | 11.42409 | 0.304 | 109.2 |
| 2026-01-31T07:18 | 54.13742 | 11.42463 | 0.113 | 87.5 |
| 2026-01-31T07:28 | 54.13739 | 11.42465 | 0.009 | 156.2 |
| 2026-01-31T07:38 | 54.13752 | 11.42442 | 0.065 | 313.9 |
| 2026-01-31T07:48 | 54.13712 | 11.42346 | 0.249 | 234.9 |
| 2026-01-31T07:58 | 54.13745 | 11.42403 | 0.169 | 45.3 |
| 2026-01-31T08:08 | 54.13722 | 11.42419 | 0.090 | 157.9 |
| 2026-01-31T08:18 | 54.13735 | 11.42458 | 0.095 | 60.6 |
| 2026-01-31T08:28 | 54.13745 | 11.42461 | 0.038 | 8.8 |
| 2026-01-31T08:38 | 54.13740 | 11.42458 | 0.019 | 199.4 |
| 2026-01-31T08:48 | 54.13737 | 11.42452 | 0.018 | 222.2 |
| 2026-01-31T08:58 | 54.13738 | 11.42467 | 0.031 | 80.1 |
| 2026-01-31T09:08 | 54.13732 | 11.42459 | 0.028 | 213.4 |
| 2026-01-31T09:18 | 54.13739 | 11.42454 | 0.030 | 339.4 |
| 2026-01-31T09:28 | 54.13726 | 11.42450 | 0.051 | 190.1 |
| 2026-01-31T09:38 | 54.13706 | 11.42618 | 0.362 | 101.4 |
| 2026-01-31T09:48 | 54.13827 | 11.42575 | 0.447 | 348.3 |
| 2026-01-31T09:58 | 54.13848 | 11.42229 | 0.736 | 276.0 |
| 2026-01-31T10:08 | 54.13724 | 11.42174 | 0.465 | 194.7 |
| 2026-01-31T10:18 | 54.13752 | 11.42250 | 0.191 | 57.8 |
| 2026-01-31T10:28 | 54.13697 | 11.42272 | 0.202 | 166.2 |
| 2026-01-31T10:38 | 54.13640 | 11.42339 | 0.249 | 145.8 |
| 2026-01-31T10:48 | 54.13750 | 11.42288 | 0.409 | 344.8 |
| 2026-01-31T10:58 | 54.13737 | 11.42411 | 0.265 | 100.1 |
| 2026-01-31T11:08 | 54.13740 | 11.42407 | 0.015 | 322.8 |
| 2026-01-31T11:18 | 54.13668 | 11.42523 | 0.359 | 136.8 |
| 2026-01-31T11:28 | 54.14827 | 11.41506 | 4.699 | 332.8 |
| 2026-01-31T11:38 | 54.16086 | 11.40342 | 5.164 | 331.5 |
| 2026-01-31T11:48 | 54.16709 | 11.39822 | 2.498 | 333.9 |
| 2026-01-31T11:58 | 54.16682 | 11.40537 | 1.514 | 93.6 |
| 2026-01-31T12:08 | 54.16831 | 11.41842 | 2.812 | 79.0 |
| 2026-01-31T12:18 | 54.17008 | 11.43214 | 2.971 | 77.6 |
| 2026-01-31T12:28 | 54.17092 | 11.44418 | 2.564 | 83.2 |
| 2026-01-31T12:38 | 54.17180 | 11.45499 | 2.307 | 82.1 |
| 2026-01-31T12:48 | 54.17253 | 11.45572 | 0.303 | 30.8 |
| 2026-01-31T12:58 | 54.17172 | 11.45619 | 0.309 | 161.2 |
| 2026-01-31T13:08 | 54.17139 | 11.45796 | 0.391 | 107.2 |
| 2026-01-31T13:18 | 54.17215 | 11.46112 | 0.722 | 67.8 |
| 2026-01-31T13:28 | 54.17205 | 11.46440 | 0.695 | 93.0 |
| 2026-01-31T13:38 | 54.17180 | 11.46610 | 0.370 | 104.3 |
| 2026-01-31T13:48 | 54.17311 | 11.46648 | 0.479 | 9.6 |
| 2026-01-31T13:58 | 54.17382 | 11.46846 | 0.492 | 58.7 |
| 2026-01-31T14:08 | 54.17260 | 11.49079 | 4.741 | 95.3 |
| 2026-01-31T14:18 | 54.16907 | 11.49685 | 1.807 | 134.8 |
| 2026-01-31T14:28 | 54.15904 | 11.44964 | 10.619 | 250.1 |
| 2026-01-31T14:38 | 54.14852 | 11.41079 | 9.053 | 245.2 |
| 2026-01-31T14:48 | 54.14663 | 11.41126 | 0.687 | 171.6 |
| 2026-01-31T14:58 | 54.14662 | 11.41161 | 0.074 | 93.7 |
| 2026-01-31T15:08 | 54.14668 | 11.41164 | 0.024 | 18.4 |
| 2026-01-31T15:18 | 54.14560 | 11.41248 | 0.428 | 155.4 |
| 2026-01-31T15:28 | 54.13696 | 11.41908 | 3.413 | 155.9 |
| 2026-01-31T15:38 | 54.13744 | 11.42447 | 1.154 | 81.3 |
| 2026-01-31T15:48 | 54.13758 | 11.42426 | 0.068 | 318.8 |
| 2026-01-31T15:58 | 54.13619 | 11.42630 | 0.663 | 139.2 |
| 2026-01-31T16:08 | 54.13662 | 11.41514 | 2.367 | 273.8 |
| 2026-01-31T16:18 | 54.13703 | 11.41802 | 0.627 | 76.4 |
| 2026-01-31T16:28 | 54.13849 | 11.41796 | 0.526 | 358.6 |
| 2026-01-31T16:38 | 54.13844 | 11.41862 | 0.142 | 97.0 |
| 2026-01-31T16:48 | 54.13862 | 11.41774 | 0.198 | 289.4 |
| 2026-01-31T16:58 | 54.13861 | 11.41750 | 0.051 | 262.3 |
| 2026-01-31T17:08 | 54.13890 | 11.41725 | 0.118 | 333.1 |
| 2026-01-31T17:18 | 54.13914 | 11.41536 | 0.410 | 282.4 |
| 2026-01-31T17:28 | 54.13868 | 11.41445 | 0.254 | 229.0 |
| 2026-01-31T17:38 | 54.13870 | 11.41390 | 0.118 | 273.1 |
| 2026-01-31T17:48 | 54.13958 | 11.41682 | 0.697 | 62.7 |
| 2026-01-31T17:58 | 54.13903 | 11.41761 | 0.261 | 140.5 |
| 2026-01-31T18:08 | 54.13852 | 11.41888 | 0.325 | 123.8 |
| 2026-01-31T18:18 | 54.13872 | 11.41735 | 0.332 | 282.5 |
| 2026-01-31T18:28 | 54.13864 | 11.41609 | 0.267 | 263.6 |
| 2026-01-31T18:38 | 54.13853 | 11.41506 | 0.222 | 259.8 |
| 2026-01-31T18:48 | 54.13840 | 11.41519 | 0.054 | 150.9 |
| 2026-01-31T18:58 | 54.13873 | 11.41586 | 0.186 | 49.7 |
| 2026-01-31T19:08 | 54.14009 | 11.41668 | 0.520 | 19.7 |
| 2026-01-31T19:18 | 54.13994 | 11.41595 | 0.165 | 250.7 |
| 2026-01-31T19:28 | 54.13960 | 11.41558 | 0.144 | 212.4 |
| 2026-01-31T19:38 | 54.13943 | 11.41554 | 0.064 | 187.8 |
| 2026-01-31T19:48 | 54.13927 | 11.41538 | 0.067 | 210.9 |
| 2026-01-31T19:58 | 54.13954 | 11.41588 | 0.146 | 47.3 |
| 2026-01-31T20:08 | 54.13985 | 11.41876 | 0.619 | 79.8 |
| 2026-01-31T20:18 | 54.13943 | 11.41924 | 0.180 | 146.2 |
| 2026-01-31T20:28 | 54.13949 | 11.41821 | 0.219 | 275.5 |
| 2026-01-31T20:38 | 54.13931 | 11.41805 | 0.074 | 207.2 |
| 2026-01-31T20:48 | 54.13861 | 11.41772 | 0.262 | 195.2 |
| 2026-01-31T20:58 | 54.13826 | 11.41738 | 0.143 | 210.6 |
| 2026-01-31T21:08 | 54.13825 | 11.41755 | 0.036 | 96.9 |
| 2026-01-31T21:18 | 54.13821 | 11.41748 | 0.021 | 224.2 |
| 2026-01-31T21:28 | 54.13818 | 11.41640 | 0.229 | 267.5 |
| 2026-01-31T21:38 | 54.13855 | 11.41715 | 0.207 | 50.2 |
| 2026-01-31T21:48 | 54.13854 | 11.41811 | 0.203 | 91.5 |
| 2026-01-31T21:58 | 54.13844 | 11.41803 | 0.038 | 204.6 |
| 2026-01-31T22:08 | 54.13878 | 11.41866 | 0.181 | 47.3 |
| 2026-01-31T22:18 | 54.13874 | 11.41876 | 0.025 | 128.6 |
| 2026-01-31T22:28 | 54.13909 | 11.41849 | 0.139 | 335.7 |
| 2026-01-31T22:38 | 54.13874 | 11.41821 | 0.138 | 205.5 |
| 2026-01-31T22:48 | 54.13813 | 11.41777 | 0.238 | 202.7 |
| 2026-01-31T22:58 | 54.13848 | 11.41869 | 0.229 | 57.6 |
| 2026-01-31T23:08 | 54.13800 | 11.41994 | 0.316 | 122.8 |
| 2026-01-31T23:18 | 54.14053 | 11.41701 | 1.104 | 325.8 |
| 2026-01-31T23:28 | 54.14019 | 11.41865 | 0.369 | 109.3 |
| 2026-01-31T23:38 | 54.13951 | 11.41847 | 0.250 | 189.0 |
| 2026-01-31T23:48 | 54.13971 | 11.41958 | 0.247 | 72.8 |
| 2026-01-31T23:58 | 54.14008 | 11.41973 | 0.137 | 13.2 |
| 2026-02-01T00:08 | 54.14001 | 11.42036 | 0.134 | 100.0 |
| 2026-02-01T00:18 | 54.13886 | 11.41806 | 0.640 | 229.4 |
| 2026-02-01T00:28 | 54.13793 | 11.41659 | 0.457 | 223.0 |
| 2026-02-01T00:38 | 54.13977 | 11.41503 | 0.738 | 333.5 |
| 2026-02-01T00:48 | 54.13956 | 11.41547 | 0.120 | 129.1 |
| 2026-02-01T00:58 | 54.13796 | 11.41663 | 0.625 | 157.0 |
| 2026-02-01T01:08 | 54.13754 | 11.41737 | 0.219 | 134.1 |
| 2026-02-01T01:18 | 54.13758 | 11.41823 | 0.184 | 84.9 |
| 2026-02-01T01:28 | 54.13896 | 11.41742 | 0.526 | 341.0 |
| 2026-02-01T01:38 | 54.14057 | 11.41658 | 0.607 | 343.0 |
| 2026-02-01T01:48 | 54.13917 | 11.41597 | 0.523 | 194.4 |
| 2026-02-01T01:58 | 54.13784 | 11.41247 | 0.882 | 237.1 |
| 2026-02-01T02:08 | 54.13684 | 11.41386 | 0.464 | 140.8 |
| 2026-02-01T02:18 | 54.13682 | 11.41470 | 0.179 | 92.9 |
| 2026-02-01T02:28 | 54.13678 | 11.41696 | 0.477 | 91.4 |
| 2026-02-01T02:38 | 54.13696 | 11.41743 | 0.118 | 58.5 |
| 2026-02-01T02:48 | 54.13929 | 11.41611 | 0.888 | 341.7 |
| 2026-02-01T02:58 | 54.13886 | 11.42221 | 1.299 | 97.0 |
| 2026-02-01T03:08 | 54.13772 | 11.41925 | 0.748 | 236.9 |
| 2026-02-01T03:18 | 54.13851 | 11.41969 | 0.300 | 18.3 |
| 2026-02-01T03:28 | 54.13921 | 11.41947 | 0.256 | 349.5 |
| 2026-02-01T03:38 | 54.13874 | 11.41982 | 0.186 | 156.3 |
| 2026-02-01T03:48 | 54.13845 | 11.41921 | 0.166 | 231.1 |
| 2026-02-01T03:58 | 54.13921 | 11.41897 | 0.280 | 349.1 |
| 2026-02-01T04:08 | 54.13977 | 11.41930 | 0.212 | 19.7 |
| 2026-02-01T04:18 | 54.13949 | 11.42040 | 0.253 | 113.0 |
| 2026-02-01T04:28 | 54.13820 | 11.41844 | 0.624 | 221.7 |
| 2026-02-01T04:38 | 54.13733 | 11.41794 | 0.332 | 198.8 |
| 2026-02-01T04:48 | 54.13810 | 11.41678 | 0.371 | 318.6 |
| 2026-02-01T04:58 | 54.13842 | 11.41726 | 0.153 | 41.8 |
| 2026-02-01T05:08 | 54.13882 | 11.41899 | 0.393 | 68.2 |
| 2026-02-01T05:18 | 54.14005 | 11.41922 | 0.447 | 6.2 |
| 2026-02-01T05:28 | 54.13926 | 11.42105 | 0.482 | 126.3 |
| 2026-02-01T05:38 | 54.13894 | 11.41987 | 0.276 | 245.3 |
| 2026-02-01T05:48 | 54.13934 | 11.41877 | 0.272 | 301.6 |
| 2026-02-01T05:58 | 54.13822 | 11.41784 | 0.449 | 206.3 |
| 2026-02-01T06:08 | 54.13743 | 11.41762 | 0.288 | 188.9 |
| 2026-02-01T06:18 | 54.13828 | 11.41787 | 0.309 | 9.8 |
| 2026-02-01T06:28 | 54.13909 | 11.41849 | 0.321 | 24.1 |
| 2026-02-01T06:38 | 54.14012 | 11.42053 | 0.569 | 49.2 |
| 2026-02-01T06:48 | 54.13941 | 11.42183 | 0.377 | 133.2 |
| 2026-02-01T06:58 | 54.13876 | 11.42059 | 0.352 | 228.2 |
| 2026-02-01T07:08 | 54.13855 | 11.42231 | 0.372 | 101.6 |
| 2026-02-01T07:18 | 54.13736 | 11.42414 | 0.577 | 137.9 |
| 2026-02-01T07:28 | 54.14876 | 11.42376 | 4.111 | 358.9 |
| 2026-02-01T07:38 | 54.18279 | 11.41803 | 12.322 | 354.4 |
| 2026-02-01T07:48 | 54.21746 | 11.41212 | 12.560 | 354.3 |
| 2026-02-01T07:58 | 54.25128 | 11.40515 | 12.279 | 353.1 |
| 2026-02-01T08:08 | 54.28380 | 11.39888 | 11.793 | 353.6 |
| 2026-02-01T08:18 | 54.31685 | 11.39477 | 11.945 | 355.8 |
| 2026-02-01T08:28 | 54.35014 | 11.38914 | 12.055 | 354.4 |
| 2026-02-01T08:38 | 54.38338 | 11.38098 | 12.103 | 351.8 |
| 2026-02-01T08:48 | 54.41625 | 11.37463 | 11.924 | 353.6 |
| 2026-02-01T08:58 | 54.44730 | 11.36696 | 11.306 | 351.8 |
| 2026-02-01T09:08 | 54.46759 | 11.36951 | 7.335 | 4.2 |
| 2026-02-01T09:18 | 54.46741 | 11.37116 | 0.353 | 101.0 |
| 2026-02-01T09:28 | 54.46798 | 11.37136 | 0.210 | 11.4 |
| 2026-02-01T09:38 | 54.48621 | 11.33510 | 10.055 | 310.8 |
| 2026-02-01T09:48 | 54.51044 | 11.29447 | 12.205 | 315.7 |
| 2026-02-01T09:58 | 54.53192 | 11.24783 | 12.471 | 308.4 |
| 2026-02-01T10:08 | 54.55284 | 11.20119 | 12.346 | 307.7 |
| 2026-02-01T10:18 | 54.56938 | 11.15279 | 11.761 | 300.5 |
| 2026-02-01T10:28 | 54.58456 | 11.11029 | 10.446 | 301.6 |
| 2026-02-01T10:38 | 54.60790 | 11.08129 | 10.374 | 324.2 |
| 2026-02-01T10:48 | 54.60819 | 11.08418 | 0.613 | 80.2 |
| 2026-02-01T10:58 | 54.60824 | 11.08411 | 0.022 | 319.4 |
| 2026-02-01T11:08 | 54.60573 | 11.08440 | 0.906 | 176.2 |
| 2026-02-01T11:18 | 54.59891 | 11.04733 | 8.138 | 252.4 |
| 2026-02-01T11:28 | 54.59511 | 10.99149 | 11.766 | 263.3 |
| 2026-02-01T11:38 | 54.59429 | 10.93425 | 11.984 | 268.6 |
| 2026-02-01T11:48 | 54.59092 | 10.87842 | 11.749 | 264.1 |
| 2026-02-01T11:58 | 54.59236 | 10.85586 | 4.751 | 276.3 |
| 2026-02-01T12:08 | 54.59174 | 10.85955 | 0.805 | 106.1 |
| 2026-02-01T12:18 | 54.59173 | 10.86005 | 0.103 | 91.6 |
| 2026-02-01T12:28 | 54.59479 | 10.86161 | 1.151 | 16.5 |
| 2026-02-01T12:38 | 54.60465 | 10.85291 | 3.993 | 332.9 |
| 2026-02-01T12:48 | 54.60380 | 10.85560 | 0.641 | 118.5 |
| 2026-02-01T12:58 | 54.60376 | 10.85580 | 0.045 | 110.2 |
| 2026-02-01T13:08 | 54.60394 | 10.85598 | 0.073 | 30.0 |
| 2026-02-01T13:18 | 54.59624 | 10.82232 | 7.571 | 248.5 |
| 2026-02-01T13:28 | 54.57789 | 10.77965 | 11.113 | 233.5 |
| 2026-02-01T13:38 | 54.55605 | 10.74178 | 11.177 | 225.2 |
| 2026-02-01T13:48 | 54.53312 | 10.70404 | 11.439 | 223.8 |
| 2026-02-01T13:58 | 54.51896 | 10.67911 | 7.306 | 225.7 |
| 2026-02-01T14:08 | 54.51891 | 10.68453 | 1.136 | 90.7 |
| 2026-02-01T14:18 | 54.51818 | 10.68287 | 0.439 | 232.6 |
| 2026-02-01T14:28 | 54.51761 | 10.63377 | 10.298 | 268.9 |
| 2026-02-01T14:38 | 54.51682 | 10.57583 | 12.152 | 268.7 |
| 2026-02-01T14:48 | 54.51551 | 10.51856 | 12.019 | 267.8 |
| 2026-02-01T14:58 | 54.51429 | 10.46107 | 12.064 | 267.9 |
| 2026-02-01T15:08 | 54.51269 | 10.40579 | 11.607 | 267.2 |
| 2026-02-01T15:18 | 54.51066 | 10.35098 | 11.518 | 266.4 |
| 2026-02-01T15:28 | 54.50218 | 10.30009 | 11.103 | 254.0 |
| 2026-02-01T15:38 | 54.48583 | 10.25524 | 11.102 | 238.0 |
| 2026-02-01T15:48 | 54.47690 | 10.23553 | 5.241 | 232.1 |
| 2026-02-01T15:58 | 54.47764 | 10.23765 | 0.519 | 59.2 |
| 2026-02-01T16:08 | 54.47770 | 10.23844 | 0.167 | 82.4 |
| 2026-02-01T16:18 | 54.45568 | 10.24248 | 7.981 | 173.9 |
| 2026-02-01T16:28 | 54.42922 | 10.21689 | 10.950 | 209.4 |
| 2026-02-01T16:38 | 54.40071 | 10.19886 | 10.952 | 200.3 |
| 2026-02-01T16:48 | 54.37622 | 10.18184 | 9.527 | 202.1 |
| 2026-02-01T16:58 | 54.35036 | 10.16197 | 10.215 | 204.2 |
| 2026-02-01T17:08 | 54.33145 | 10.17057 | 7.050 | 165.1 |
| 2026-02-01T17:18 | 54.32853 | 10.17944 | 2.147 | 119.4 |
| 2026-02-01T17:26 | 54.32852 | 10.17944 | 0.003 | 226.4 |
